Aérodrome :
LOGIN :

S'inscrire | Disclaimer

   EN    FR    IT 

 










Légende :    VFR   VFR Marginal   IFR   IFR Intensif   IFR Très Intensif
Visi : 
Plafond : 
>= 8 km
>= 3000ft
5 à 8 km
1000 à 3000 ft
1500m à 5 km
500 à 1000 ft
800 à 1500m
200 à 500 ft
< 800m
< 200 ft
Symboles :   Orages  Brouillard  Fortes neiges  Fortes précipitations  Vent > 20 kt
SIGMETs :   Divers  Orages  Givrage  Turbulence  Onde Orograph.  Cendres Volcan.







- Altitude de l'aérodrome : 2595 ft
- Code IATA : SLM


LESA - Salamanca Matacan

DERNIER METAR :
  • 152000Z AUTO 04005KT 9999 NCD 24/10 Q1016

METARs EXPIRÉS :
  • 151930Z AUTO 02007KT 9999 NCD 25/10 Q1016
  • 151900Z 02005KT 9999 FEW048 27/10 Q1015
  • 151830Z 02005KT 340V060 9999 FEW048 29/10 Q1015
  • 151800Z 02006KT 350V060 9999 FEW047 30/09 Q1015
  • 151730Z 04006KT 360V070 9999 FEW047 31/08 Q1015

TAF TAF LESA
Valide du 15 à 18h jusqu'au 16 à 18h UTC


151700Z 1518/1618 03010KT CAVOK TX35/1616Z TN14/1605Z
TEMPO 1518/1611 VRB05KT
TEMPO 1615/1618 23010KT
Pas de NOTAMs connus pour ce terrain.



MET'MAP, la Météo Aéronautique d'un coup d'oeil ! - Copyright ORBIFLY Décembre 2007 - Disclaimer

ORBIFLY MET'MAP TEAM :

Programmation & Développement : Alexandra Zaïnal
Conception & Développement : Baudouin d'Aumeries
Co-Programmation & Développement : Marc-Olivier Méhu
Soutien technique & logistique : Manuel Goepfert

Contact : metmap@orbifly.com




SOURCES & CREDITS :

   NOAA